createdAt,value
2024-01-20T00:00:24.327Z,96566.25
2024-01-20T00:01:27.698Z,96568.94
2024-01-20T00:02:29.647Z,96559.25
2024-01-20T00:03:32.697Z,96556.56
2024-01-20T00:04:34.878Z,96559.25
2024-01-20T00:05:39.479Z,96557.34
2024-01-20T00:06:43.411Z,96558.47
2024-01-20T00:07:47.655Z,96558.03
2024-01-20T00:08:49.794Z,96554.56
2024-01-20T00:09:52.818Z,96554.91
2024-01-20T00:10:54.876Z,96552.97
2024-01-20T00:11:58.092Z,96559.50
2024-01-20T00:13:00.076Z,96554.91
2024-01-20T00:14:03.424Z,96556.81
2024-01-20T00:15:07.293Z,96557.16
2024-01-20T00:16:10.690Z,96566.81
2024-01-20T00:17:21.325Z,96566.00
2024-01-20T00:18:29.189Z,96563.31
2024-01-20T00:19:31.293Z,96571.75
2024-01-20T00:20:34.400Z,96569.84
2024-01-20T00:21:39.289Z,96565.59
2024-01-20T00:22:41.371Z,96567.16
2024-01-20T00:23:44.338Z,96568.28
2024-01-20T00:24:47.259Z,96577.94
2024-01-20T00:25:51.364Z,96563.22
2024-01-20T00:26:53.292Z,96558.63
2024-01-20T00:27:56.195Z,96566.25
2024-01-20T00:28:58.369Z,96562.78
2024-01-20T00:30:01.778Z,96570.09
2024-01-20T00:31:05.268Z,96566.94
2024-01-20T00:32:08.620Z,96564.25
2024-01-20T00:33:10.943Z,96563.81
2024-01-20T00:34:14.003Z,96562.66
2024-01-20T00:35:16.264Z,96561.88
2024-01-20T00:36:19.622Z,96563.81
2024-01-20T00:37:22.897Z,96567.28
2024-01-20T00:38:26.583Z,96570.75
2024-01-20T00:39:29.488Z,96559.97
2024-01-20T00:40:31.707Z,96564.56
2024-01-20T00:41:34.654Z,96562.66
2024-01-20T00:42:36.645Z,96563.81
2024-01-20T00:43:39.628Z,96558.41
2024-01-20T00:44:42.785Z,96558.41
2024-01-20T00:45:45.657Z,96556.81
2024-01-20T00:46:47.720Z,96567.28
2024-01-20T00:47:49.633Z,96566.50
2024-01-20T00:48:52.836Z,96567.59
2024-01-20T00:49:54.906Z,96566.06
2024-01-20T00:50:57.794Z,96579.53
2024-01-20T00:51:59.742Z,96576.81
2024-01-20T00:53:04.293Z,96569.88
2024-01-20T00:54:06.305Z,96579.84
2024-01-20T00:55:11.328Z,96571.75
2024-01-20T00:56:13.235Z,96573.69
2024-01-20T00:57:15.150Z,96572.13
2024-01-20T00:58:31.297Z,96565.16
2024-01-20T00:59:33.216Z,96568.97
2024-01-20T01:00:36.238Z,96568.97
2024-01-20T01:01:38.491Z,96571.22
2024-01-20T01:02:42.669Z,96566.16
2024-01-20T01:03:44.610Z,96568.09
2024-01-20T01:04:47.548Z,96567.31
2024-01-20T01:05:49.505Z,96552.63
2024-01-20T01:06:52.390Z,96558.00
2024-01-20T01:07:54.313Z,96564.84
2024-01-20T01:08:58.511Z,96560.25
2024-01-20T01:10:00.594Z,96560.91
2024-01-20T01:11:03.723Z,96560.13
2024-01-20T01:12:06.230Z,96556.66
2024-01-20T01:13:09.110Z,96563.19
2024-01-20T01:14:11.140Z,96560.47
2024-01-20T01:15:14.180Z,96559.34
2024-01-20T01:16:16.352Z,96553.97
2024-01-20T01:17:19.498Z,96553.19
2024-01-20T01:18:21.672Z,96556.19
2024-01-20T01:19:26.063Z,96554.66
2024-01-20T01:20:28.161Z,96553.06
2024-01-20T01:21:31.158Z,96553.06
2024-01-20T01:22:33.139Z,96553.41
2024-01-20T01:23:36.090Z,96555.31
2024-01-20T01:24:39.387Z,96552.97
2024-01-20T01:25:42.306Z,96549.13
2024-01-20T01:26:45.434Z,96562.28
2024-01-20T01:27:47.389Z,96560.69
2024-01-20T01:28:50.354Z,96571.00
2024-01-20T01:29:52.336Z,96563.75
2024-01-20T01:30:55.265Z,96569.47
2024-01-20T01:31:57.209Z,96566.75
2024-01-20T01:32:59.216Z,96565.22
2024-01-20T01:34:02.202Z,96563.63
2024-01-20T01:35:05.912Z,96564.75
2024-01-20T01:36:08.993Z,96569.00
2024-01-20T01:37:10.861Z,96554.00
2024-01-20T01:38:12.904Z,96557.78
2024-01-20T01:39:16.824Z,96560.94
2024-01-20T01:40:20.067Z,96560.16
2024-01-20T01:41:22.986Z,96558.56
2024-01-20T01:42:24.929Z,96554.00
2024-01-20T01:43:28.437Z,96555.88
2024-01-20T01:44:30.308Z,96561.25
2024-01-20T01:45:35.177Z,96550.06
2024-01-20T01:46:37.594Z,96556.56
2024-01-20T01:47:40.854Z,96555.00
2024-01-20T01:48:42.872Z,96557.69
2024-01-20T01:49:46.009Z,96564.97
2024-01-20T01:50:49.070Z,96558.03
2024-01-20T01:51:52.889Z,96558.03
2024-01-20T01:52:55.888Z,96558.03
2024-01-20T01:54:02.656Z,96552.63
2024-01-20T01:55:05.643Z,96554.56
2024-01-20T01:56:10.684Z,96561.84
2024-01-20T01:57:15.221Z,96560.72
2024-01-20T01:58:18.454Z,96558.03
2024-01-20T01:59:20.607Z,96562.28
2024-01-20T02:00:23.986Z,96568.78
2024-01-20T02:01:26.743Z,96568.00
2024-01-20T02:02:29.628Z,96559.47
2024-01-20T02:03:31.714Z,96563.72
2024-01-20T02:04:33.630Z,96560.25
2024-01-20T02:05:36.543Z,96554.44
2024-01-20T02:06:38.798Z,96557.91
2024-01-20T02:07:43.853Z,96555.56
2024-01-20T02:08:45.931Z,96553.66
2024-01-20T02:09:48.897Z,96551.72
2024-01-20T02:10:51.128Z,96549.03
2024-01-20T02:11:56.369Z,96555.56
2024-01-20T02:12:59.532Z,96560.94
2024-01-20T02:14:03.032Z,96560.16
2024-01-20T02:15:06.184Z,96566.34
2024-01-20T02:16:09.196Z,96570.59
2024-01-20T02:17:11.364Z,96570.59
2024-01-20T02:18:14.342Z,96571.38
2024-01-20T02:19:16.454Z,96567.25
2024-01-20T02:20:19.602Z,96576.09
2024-01-20T02:21:21.654Z,96574.97
2024-01-20T02:22:25.936Z,96579.56
2024-01-20T02:23:28.325Z,96574.19
2024-01-20T02:24:31.262Z,96587.97
2024-01-20T02:25:33.174Z,96587.19
2024-01-20T02:26:35.058Z,96600.22
2024-01-20T02:27:38.075Z,96598.66
2024-01-20T02:28:39.915Z,96601.34
2024-01-20T02:29:42.828Z,96599.75
2024-01-20T02:30:46.524Z,96601.34
2024-01-20T02:31:49.383Z,96604.81
2024-01-20T02:32:51.458Z,96604.03
2024-01-20T02:33:53.680Z,96605.59
2024-01-20T02:34:56.680Z,96610.97
2024-01-20T02:35:58.612Z,96610.19
2024-01-20T02:37:01.589Z,96609.41
2024-01-20T02:38:05.159Z,96613.22
2024-01-20T02:39:08.240Z,96608.50
2024-01-20T02:40:10.421Z,96611.53
2024-01-20T02:41:13.326Z,96609.19
2024-01-20T02:42:15.430Z,96616.03
2024-01-20T02:43:18.391Z,96617.94
2024-01-20T02:44:20.212Z,96609.41
2024-01-20T02:45:23.122Z,96605.16
2024-01-20T02:46:25.108Z,96602.00
2024-01-20T02:47:27.989Z,96607.38
2024-01-20T02:48:30.738Z,96598.06
2024-01-20T02:49:34.303Z,96588.78
2024-01-20T02:50:36.240Z,96601.44
2024-01-20T02:51:39.053Z,96596.38
2024-01-20T02:52:40.914Z,96594.84
2024-01-20T02:53:45.120Z,96594.03
2024-01-20T02:54:47.044Z,96595.94
2024-01-20T02:55:49.903Z,96593.25
2024-01-20T02:56:51.948Z,96599.75
2024-01-20T02:57:54.814Z,96591.69
2024-01-20T02:58:56.635Z,96597.06
2024-01-20T02:59:59.740Z,96596.25
2024-01-20T03:01:03.398Z,96595.47
2024-01-20T03:02:06.455Z,96595.47
2024-01-20T03:03:08.628Z,96594.69
2024-01-20T03:04:11.590Z,96586.63
2024-01-20T03:05:13.759Z,96582.03
2024-01-20T03:06:16.735Z,96583.94
2024-01-20T03:07:19.045Z,96587.41
2024-01-20T03:08:21.923Z,96586.94
2024-01-20T03:09:25.159Z,96580.00
2024-01-20T03:10:28.089Z,96581.13
2024-01-20T03:11:30.185Z,96579.56
2024-01-20T03:12:33.256Z,96570.72
2024-01-20T03:13:35.259Z,96573.72
2024-01-20T03:14:37.286Z,96576.41
2024-01-20T03:15:40.320Z,96575.97
2024-01-20T03:16:42.229Z,96576.31
2024-01-20T03:17:45.112Z,96575.97
2024-01-20T03:18:47.190Z,96578.19
2024-01-20T03:19:50.252Z,96576.63
2024-01-20T03:20:52.122Z,96576.63
2024-01-20T03:21:54.095Z,96582.81
2024-01-20T03:22:56.967Z,96591.66
2024-01-20T03:23:59.209Z,96590.56
2024-01-20T03:25:03.895Z,96602.53
2024-01-20T03:26:09.410Z,96607.59
2024-01-20T03:27:12.233Z,96607.59
2024-01-20T03:28:14.094Z,96607.59
2024-01-20T03:29:17.256Z,96611.41
2024-01-20T03:30:19.360Z,96603.22
2024-01-20T03:31:22.571Z,96608.94
2024-01-20T03:32:24.500Z,96613.84
2024-01-20T03:33:27.529Z,96603.41
2024-01-20T03:34:29.548Z,96595.69
2024-01-20T03:35:32.835Z,96604.88
2024-01-20T03:36:34.724Z,96598.38
2024-01-20T03:37:37.754Z,96596.34
2024-01-20T03:38:39.669Z,96596.34
2024-01-20T03:39:42.543Z,96594.78
2024-01-20T03:40:45.896Z,96597.47
2024-01-20T03:41:48.811Z,96595.13
2024-01-20T03:42:50.708Z,96601.63
2024-01-20T03:43:52.627Z,96598.47
2024-01-20T03:44:55.616Z,96602.28
2024-01-20T03:45:57.585Z,96596.13
2024-01-20T03:47:00.551Z,96598.34
2024-01-20T03:48:02.776Z,96599.16
2024-01-20T03:49:06.056Z,96599.16
2024-01-20T03:50:10.592Z,96596.78
2024-01-20T03:51:13.842Z,96598.69
2024-01-20T03:52:15.777Z,96599.03
2024-01-20T03:53:18.580Z,96607.88
2024-01-20T03:54:21.046Z,96603.63
2024-01-20T03:55:23.108Z,96608.22
2024-01-20T03:56:27.278Z,96613.59
2024-01-20T03:57:29.232Z,96619.00
2024-01-20T03:58:32.126Z,96626.72
2024-01-20T03:59:34.111Z,96624.78
2024-01-20T04:00:37.158Z,96623.69
2024-01-20T04:01:40.587Z,96629.84
2024-01-20T04:02:43.524Z,96633.00
2024-01-20T04:03:45.988Z,96630.00
2024-01-20T04:04:48.983Z,96631.53
2024-01-20T04:05:50.960Z,96631.53
2024-01-20T04:06:53.917Z,96626.16
2024-01-20T04:07:55.818Z,96636.94
2024-01-20T04:08:57.769Z,96632.69
2024-01-20T04:10:00.824Z,96632.22
2024-01-20T04:11:02.955Z,96637.59
2024-01-20T04:12:08.419Z,96632.22
2024-01-20T04:13:10.351Z,96640.28
2024-01-20T04:14:13.244Z,96636.47
2024-01-20T04:15:15.241Z,96644.53
2024-01-20T04:16:18.216Z,96647.22
2024-01-20T04:17:20.114Z,96642.97
2024-01-20T04:18:24.042Z,96654.38
2024-01-20T04:19:26.043Z,96657.75
2024-01-20T04:20:28.961Z,96658.44
2024-01-20T04:21:30.859Z,96657.97
2024-01-20T04:22:33.733Z,96664.44
2024-01-20T04:23:35.654Z,96659.41
2024-01-20T04:24:38.528Z,96653.91
2024-01-20T04:25:40.476Z,96657.72
2024-01-20T04:26:43.938Z,96655.66
2024-01-20T04:27:47.285Z,96651.41
2024-01-20T04:28:50.464Z,96657.13
2024-01-20T04:29:52.430Z,96660.16
2024-01-20T04:30:55.359Z,96663.16
2024-01-20T04:31:57.165Z,96659.69
2024-01-20T04:33:00.023Z,96658.88
2024-01-20T04:34:02.174Z,96670.47
2024-01-20T04:35:06.616Z,96663.50
2024-01-20T04:36:08.575Z,96660.34
2024-01-20T04:37:11.473Z,96658.78
2024-01-20T04:38:13.360Z,96661.00
2024-01-20T04:39:16.406Z,96669.84
2024-01-20T04:40:18.289Z,96668.63
2024-01-20T04:41:21.105Z,96667.84
2024-01-20T04:42:23.112Z,96678.91
2024-01-20T04:43:29.472Z,96677.34
2024-01-20T04:44:31.393Z,96673.41
2024-01-20T04:45:34.504Z,96681.81
2024-01-20T04:46:36.553Z,96675.97
2024-01-20T04:47:39.502Z,96689.41
2024-01-20T04:48:41.466Z,96684.03
2024-01-20T04:49:44.561Z,96683.56
2024-01-20T04:50:46.659Z,96684.69
2024-01-20T04:51:48.746Z,96685.78
2024-01-20T04:52:51.577Z,96682.00
2024-01-20T04:53:53.477Z,96687.38
2024-01-20T04:54:56.502Z,96683.09
2024-01-20T04:55:58.381Z,96682.78
2024-01-20T04:57:01.362Z,96682.78
2024-01-20T04:58:03.470Z,96687.38
2024-01-20T04:59:07.800Z,96693.06
2024-01-20T05:00:10.675Z,96695.00
2024-01-20T05:01:13.675Z,96697.34
2024-01-20T05:02:15.776Z,96699.69
2024-01-20T05:03:18.718Z,96712.03
2024-01-20T05:04:20.734Z,96705.06
2024-01-20T05:05:22.644Z,96701.59
2024-01-20T05:06:25.469Z,96699.25
2024-01-20T05:07:27.337Z,96712.69
2024-01-20T05:08:30.217Z,96712.69
2024-01-20T05:09:32.229Z,96706.53
2024-01-20T05:10:35.536Z,96704.97
2024-01-20T05:11:37.353Z,96713.34
2024-01-20T05:12:40.277Z,96710.97
2024-01-20T05:13:42.129Z,96711.31
2024-01-20T05:14:46.530Z,96707.03
2024-01-20T05:15:48.464Z,96707.03
2024-01-20T05:16:51.507Z,96702.78
2024-01-20T05:17:54.016Z,96709.25
2024-01-20T05:18:57.166Z,96703.09
2024-01-20T05:19:59.194Z,96707.69
2024-01-20T05:21:02.228Z,96711.50
2024-01-20T05:22:04.299Z,96709.94
2024-01-20T05:23:07.172Z,96713.75
2024-01-20T05:24:09.145Z,96708.38
2024-01-20T05:25:11.969Z,96719.91
2024-01-20T05:26:13.804Z,96724.16
2024-01-20T05:27:15.621Z,96718.00
2024-01-20T05:28:18.479Z,96719.91
2024-01-20T05:29:20.349Z,96730.66
2024-01-20T05:30:24.987Z,96726.84
2024-01-20T05:31:32.433Z,96727.97
2024-01-20T05:32:36.026Z,96722.59
2024-01-20T05:33:38.169Z,96729.88
2024-01-20T05:34:41.160Z,96727.19
2024-01-20T05:35:43.103Z,96730.97
2024-01-20T05:36:46.451Z,96732.88
2024-01-20T05:37:48.282Z,96726.72
2024-01-20T05:38:51.169Z,96740.16
2024-01-20T05:39:53.084Z,96737.78
2024-01-20T05:40:56.056Z,96741.25
2024-01-20T05:41:57.966Z,96741.25
2024-01-20T05:43:00.871Z,96745.84
2024-01-20T05:44:03.840Z,96749.66
2024-01-20T05:45:10.590Z,96745.06
2024-01-20T05:46:15.265Z,96748.84
2024-01-20T05:47:17.198Z,96747.28
2024-01-20T05:48:20.409Z,96751.88
2024-01-20T05:49:22.588Z,96760.25
2024-01-20T05:50:25.664Z,96746.03
2024-01-20T05:51:27.606Z,96747.13
2024-01-20T05:52:30.443Z,96758.22
2024-01-20T05:53:32.272Z,96749.69
2024-01-20T05:54:35.549Z,96756.16
2024-01-20T05:55:37.690Z,96757.31
2024-01-20T05:56:40.524Z,96753.38
2024-01-20T05:57:42.418Z,96754.81
2024-01-20T05:58:45.287Z,96759.06
2024-01-20T05:59:47.117Z,96754.00
2024-01-20T06:00:50.719Z,96754.34
2024-01-20T06:01:54.126Z,96754.66
2024-01-20T06:02:57.121Z,96761.94
2024-01-20T06:03:59.085Z,96760.34
2024-01-20T06:05:02.080Z,96766.84
2024-01-20T06:06:05.320Z,96748.81
2024-01-20T06:07:08.286Z,96757.66
2024-01-20T06:08:10.160Z,96750.06
2024-01-20T06:09:13.223Z,96754.34
2024-01-20T06:10:15.263Z,96745.16
2024-01-20T06:11:17.126Z,96749.44
2024-01-20T06:12:20.035Z,96754.81
2024-01-20T06:13:21.985Z,96751.31
2024-01-20T06:14:24.834Z,96747.84
2024-01-20T06:15:26.750Z,96751.66
2024-01-20T06:16:28.609Z,96746.59
2024-01-20T06:17:32.925Z,96748.03
2024-01-20T06:18:34.893Z,96750.25
2024-01-20T06:19:38.019Z,96747.09
2024-01-20T06:20:39.985Z,96745.53
2024-01-20T06:21:43.966Z,96742.38
2024-01-20T06:22:45.796Z,96744.59
2024-01-20T06:23:47.773Z,96753.78
2024-01-20T06:24:50.610Z,96741.75
2024-01-20T06:25:52.529Z,96749.03
2024-01-20T06:26:55.406Z,96746.81
2024-01-20T06:27:57.317Z,96747.94
2024-01-20T06:29:00.257Z,96745.25
2024-01-20T06:30:02.151Z,96747.94
2024-01-20T06:31:05.440Z,96755.66
2024-01-20T06:32:07.830Z,96748.41
2024-01-20T06:33:11.295Z,96752.97
2024-01-20T06:34:14.240Z,96757.56
2024-01-20T06:35:16.886Z,96757.56
2024-01-20T06:36:19.844Z,96758.34
2024-01-20T06:37:21.727Z,96769.09
2024-01-20T06:38:26.237Z,96763.72
2024-01-20T06:39:28.152Z,96761.03
2024-01-20T06:40:31.309Z,96766.09
2024-01-20T06:41:33.307Z,96769.91
2024-01-20T06:42:36.258Z,96772.56
2024-01-20T06:43:38.455Z,96775.28
2024-01-20T06:44:41.387Z,96769.91
2024-01-20T06:45:43.401Z,96765.31
2024-01-20T06:46:45.509Z,96769.91
2024-01-20T06:47:48.454Z,96757.56
2024-01-20T06:48:52.354Z,96762.16
2024-01-20T06:49:54.837Z,96767.53
2024-01-20T06:50:57.780Z,96761.38
2024-01-20T06:51:59.879Z,96765.50
2024-01-20T06:53:03.808Z,96765.50
2024-01-20T06:54:06.861Z,96772.72
2024-01-20T06:55:10.119Z,96767.38
2024-01-20T06:56:12.039Z,96769.75
2024-01-20T06:57:15.008Z,96775.09
2024-01-20T06:58:16.969Z,96765.16
2024-01-20T06:59:19.946Z,96760.91
2024-01-20T07:00:22.491Z,96770.53
2024-01-20T07:01:26.607Z,96767.06
2024-01-20T07:02:31.431Z,96771.66
2024-01-20T07:03:34.566Z,96772.41
2024-01-20T07:04:38.461Z,96767.38
2024-01-20T07:05:41.429Z,96768.19
2024-01-20T07:06:43.409Z,96766.91
2024-01-20T07:07:46.620Z,96778.44
2024-01-20T07:08:49.553Z,96774.16
2024-01-20T07:09:51.436Z,96773.38
2024-01-20T07:10:54.323Z,96767.25
2024-01-20T07:11:58.926Z,96769.13
2024-01-20T07:13:01.882Z,96774.03
2024-01-20T07:14:03.922Z,96770.22
2024-01-20T07:15:07.795Z,96774.03
2024-01-20T07:16:11.564Z,96772.44
2024-01-20T07:17:13.439Z,96774.81
2024-01-20T07:18:16.598Z,96771.34
2024-01-20T07:19:18.692Z,96782.56
2024-01-20T07:20:22.987Z,96790.44
2024-01-20T07:21:25.574Z,96787.56
2024-01-20T07:22:28.475Z,96787.38
2024-01-20T07:23:30.359Z,96793.38
2024-01-20T07:24:33.506Z,96791.75
2024-01-20T07:25:37.887Z,96798.19
2024-01-20T07:26:40.885Z,96791.22
2024-01-20T07:27:42.800Z,96787.22
2024-01-20T07:28:45.700Z,96790.19
2024-01-20T07:29:47.598Z,96786.19
2024-01-20T07:30:50.451Z,96786.00
2024-01-20T07:31:52.362Z,96788.84
2024-01-20T07:32:59.241Z,96784.72
2024-01-20T07:34:02.373Z,96787.09
2024-01-20T07:35:06.019Z,96790.09
2024-01-20T07:36:09.939Z,96789.16
2024-01-20T07:37:13.064Z,96788.22
2024-01-20T07:38:15.151Z,96791.13
2024-01-20T07:39:18.468Z,96788.63
2024-01-20T07:40:20.489Z,96794.00
2024-01-20T07:41:23.933Z,96796.38
2024-01-20T07:42:25.800Z,96801.41
2024-01-20T07:43:28.655Z,96791.13
2024-01-20T07:44:32.033Z,96799.66
2024-01-20T07:45:35.251Z,96797.75
2024-01-20T07:46:37.288Z,96803.59
2024-01-20T07:47:40.302Z,96798.97
2024-01-20T07:48:44.011Z,96805.50
2024-01-20T07:49:47.159Z,96802.81
2024-01-20T07:50:49.614Z,96798.19
2024-01-20T07:51:52.875Z,96800.91
2024-01-20T07:52:55.767Z,96808.19
2024-01-20T07:53:57.734Z,96809.44
2024-01-20T07:55:00.750Z,96802.94
2024-01-20T07:56:02.573Z,96813.34
2024-01-20T07:57:05.891Z,96811.13
2024-01-20T07:58:08.048Z,96815.41
2024-01-20T07:59:09.935Z,96820.78
2024-01-20T08:00:13.634Z,96825.50
2024-01-20T08:01:17.577Z,96818.69
2024-01-20T08:02:20.467Z,96822.63
2024-01-20T08:03:22.465Z,96829.59
2024-01-20T08:04:25.369Z,96826.91
2024-01-20T08:05:27.283Z,96831.94
2024-01-20T08:06:30.486Z,96826.56
2024-01-20T08:07:33.889Z,96826.56
2024-01-20T08:08:36.795Z,96827.38
2024-01-20T08:09:38.945Z,96827.38
2024-01-20T08:10:41.956Z,96828.00
2024-01-20T08:11:43.900Z,96826.44
2024-01-20T08:12:46.772Z,96833.38
2024-01-20T08:13:48.947Z,96831.81
2024-01-20T08:14:51.948Z,96830.69
2024-01-20T08:15:53.819Z,96836.53
2024-01-20T08:16:56.706Z,96838.13
2024-01-20T08:17:58.700Z,96839.69
2024-01-20T08:19:01.736Z,96847.44
2024-01-20T08:20:04.248Z,96837.47
2024-01-20T08:21:08.608Z,96847.09
2024-01-20T08:22:10.615Z,96852.16
2024-01-20T08:23:14.865Z,96850.25
2024-01-20T08:24:16.811Z,96858.03
2024-01-20T08:25:19.714Z,96852.94
2024-01-20T08:26:21.583Z,96853.41
2024-01-20T08:27:24.478Z,96862.28
2024-01-20T08:28:26.452Z,96858.03
2024-01-20T08:29:29.379Z,96861.50
2024-01-20T08:30:31.401Z,96854.66
2024-01-20T08:31:34.308Z,96862.41
2024-01-20T08:32:36.436Z,96858.59
2024-01-20T08:33:39.399Z,96854.81
2024-01-20T08:34:41.453Z,96859.06
2024-01-20T08:35:44.417Z,96864.13
2024-01-20T08:36:46.322Z,96855.28
2024-01-20T08:37:49.164Z,96859.53
2024-01-20T08:38:52.344Z,96854.16
2024-01-20T08:39:55.194Z,96855.28
2024-01-20T08:40:57.972Z,96859.53
2024-01-20T08:42:01.581Z,96864.91
2024-01-20T08:43:04.199Z,96855.75
2024-01-20T08:44:07.148Z,96867.28
2024-01-20T08:45:10.125Z,96867.28
2024-01-20T08:46:13.741Z,96862.69
2024-01-20T08:47:16.246Z,96869.63
2024-01-20T08:48:19.329Z,96866.94
2024-01-20T08:49:21.241Z,96865.06
2024-01-20T08:50:24.818Z,96867.41
2024-01-20T08:51:26.797Z,96870.09
2024-01-20T08:52:29.719Z,96868.53
2024-01-20T08:53:33.868Z,96878.16
2024-01-20T08:54:39.304Z,96877.06
2024-01-20T08:55:41.236Z,96875.94
2024-01-20T08:56:44.513Z,96879.09
2024-01-20T08:57:46.510Z,96876.09
2024-01-20T08:58:49.385Z,96876.88
2024-01-20T08:59:51.216Z,96877.34
2024-01-20T09:00:54.294Z,96880.81
2024-01-20T09:01:56.366Z,96879.72
2024-01-20T09:02:59.263Z,96880.16
2024-01-20T09:04:02.197Z,96879.06
2024-01-20T09:05:05.979Z,96881.75
2024-01-20T09:06:08.771Z,96884.13
2024-01-20T09:07:12.412Z,96884.91
2024-01-20T09:08:14.566Z,96891.06
2024-01-20T09:09:16.961Z,96882.66
2024-01-20T09:10:21.357Z,96898.47
2024-01-20T09:11:23.966Z,96894.69
2024-01-20T09:12:26.992Z,96892.47
2024-01-20T09:13:28.957Z,96899.09
2024-01-20T09:14:31.808Z,96899.56
2024-01-20T09:15:34.329Z,96903.50
2024-01-20T09:16:37.490Z,96903.13
2024-01-20T09:17:39.464Z,96909.81
2024-01-20T09:18:42.600Z,96909.44
2024-01-20T09:19:45.904Z,96909.13
2024-01-20T09:20:48.889Z,96914.19
2024-01-20T09:21:50.841Z,96917.31
2024-01-20T09:22:53.850Z,96910.06
2024-01-20T09:23:55.800Z,96914.63
2024-01-20T09:24:59.748Z,96910.06
2024-01-20T09:26:03.107Z,96908.94
2024-01-20T09:27:06.767Z,96910.53
2024-01-20T09:28:08.675Z,96910.53
2024-01-20T09:29:11.619Z,96905.91
2024-01-20T09:30:14.133Z,96910.53
2024-01-20T09:31:17.099Z,96905.91
2024-01-20T09:32:19.068Z,96908.28
2024-01-20T09:33:22.107Z,96908.63
2024-01-20T09:34:24.176Z,96904.78
2024-01-20T09:35:27.173Z,96909.84
2024-01-20T09:36:29.168Z,96904.47
2024-01-20T09:37:32.169Z,96911.44
2024-01-20T09:38:34.154Z,96912.22
2024-01-20T09:39:36.206Z,96913.81
2024-01-20T09:40:39.189Z,96905.72
2024-01-20T09:41:43.640Z,96903.81
2024-01-20T09:42:47.780Z,96909.19
2024-01-20T09:43:50.458Z,96910.78
2024-01-20T09:44:54.404Z,96901.56
2024-01-20T09:45:58.329Z,96904.72
2024-01-20T09:47:01.529Z,96907.44
2024-01-20T09:48:05.582Z,96904.72
2024-01-20T09:49:08.745Z,96902.03
2024-01-20T09:50:11.475Z,96896.34
2024-01-20T09:51:14.600Z,96899.81
2024-01-20T09:52:18.276Z,96895.53
2024-01-20T09:53:21.334Z,96899.81
2024-01-20T09:54:23.239Z,96894.41
2024-01-20T09:55:27.559Z,96899.81
2024-01-20T09:56:29.874Z,96902.50
2024-01-20T09:57:36.471Z,96897.13
2024-01-20T09:58:38.766Z,96898.69
2024-01-20T10:00:02.516Z,96896.00
2024-01-20T10:01:14.867Z,96902.19
2024-01-20T10:02:19.350Z,96902.19
2024-01-20T10:03:26.648Z,96905.66
2024-01-20T10:04:29.910Z,96903.44
2024-01-20T10:05:33.771Z,96907.22
2024-01-20T10:06:35.991Z,96900.72
2024-01-20T10:07:39.035Z,96908.81
2024-01-20T10:08:40.985Z,96901.84
2024-01-20T10:09:44.477Z,96906.13
2024-01-20T10:10:46.537Z,96899.59
2024-01-20T10:11:49.396Z,96903.44
2024-01-20T10:12:54.433Z,96910.38
2024-01-20T10:13:57.857Z,96911.16
2024-01-20T10:14:59.835Z,96912.75
2024-01-20T10:16:02.718Z,96907.38
2024-01-20T10:17:04.713Z,96909.72
2024-01-20T10:18:09.345Z,96908.94
2024-01-20T10:19:11.447Z,96916.69
2024-01-20T10:20:20.499Z,96909.72
2024-01-20T10:21:24.096Z,96914.00
2024-01-20T10:22:27.106Z,96911.31
2024-01-20T10:23:29.129Z,96912.09
2024-01-20T10:24:32.198Z,96909.38
2024-01-20T10:25:34.249Z,96903.22
2024-01-20T10:26:43.855Z,96907.81
2024-01-20T10:27:46.241Z,96903.22
2024-01-20T10:28:50.595Z,96899.41
2024-01-20T10:29:52.841Z,96902.09
2024-01-20T10:30:55.907Z,96899.41
2024-01-20T10:31:57.787Z,96902.56
2024-01-20T10:33:09.277Z,96902.09
2024-01-20T10:34:12.982Z,96913.31
2024-01-20T10:35:16.115Z,96906.84
2024-01-20T10:36:18.838Z,96914.91
2024-01-20T10:37:27.757Z,96910.31
2024-01-20T10:38:30.150Z,96912.22
2024-01-20T10:39:34.829Z,96913.78
2024-01-20T10:40:41.478Z,96915.38
2024-01-20T10:41:49.014Z,96904.59
2024-01-20T10:42:57.102Z,96907.72
2024-01-20T10:44:04.105Z,96903.94
2024-01-20T10:45:10.762Z,96907.72
2024-01-20T10:46:19.848Z,96909.31
2024-01-20T10:47:30.416Z,96910.09
2024-01-20T10:48:36.160Z,96908.19
2024-01-20T10:49:47.146Z,96905.50
2024-01-20T10:50:54.812Z,96904.41
2024-01-20T10:51:57.626Z,96911.34
2024-01-20T10:53:00.714Z,96911.81
2024-01-20T10:54:03.794Z,96911.03
2024-01-20T10:55:06.502Z,96917.19
2024-01-20T10:56:10.381Z,96909.91
2024-01-20T10:57:12.639Z,96906.41
2024-01-20T10:58:19.641Z,96907.19
2024-01-20T10:59:28.856Z,96902.28
2024-01-20T11:00:32.571Z,96898.47
2024-01-20T11:01:34.855Z,96907.34
2024-01-20T11:02:38.256Z,96901.16
2024-01-20T11:03:40.349Z,96902.72
2024-01-20T11:04:45.418Z,96903.50
2024-01-20T11:05:48.364Z,96905.09
2024-01-20T11:06:52.398Z,96905.09
2024-01-20T11:07:58.561Z,96906.66
2024-01-20T11:09:02.714Z,96901.28
2024-01-20T11:10:06.326Z,96903.66
2024-01-20T11:11:11.013Z,96900.63
2024-01-20T11:12:13.966Z,96897.94
2024-01-20T11:13:16.726Z,96894.91
2024-01-20T11:14:21.071Z,96892.97
2024-01-20T11:15:30.082Z,96899.97
2024-01-20T11:16:34.392Z,96896.13
2024-01-20T11:17:36.370Z,96892.34
2024-01-20T11:18:41.572Z,96886.16
2024-01-20T11:19:44.199Z,96886.16
2024-01-20T11:20:59.114Z,96888.50
2024-01-20T11:22:01.069Z,96882.34
2024-01-20T11:23:10.227Z,96887.41
2024-01-20T11:24:13.696Z,96893.91
2024-01-20T11:25:19.248Z,96897.84
2024-01-20T11:26:21.152Z,96893.25
2024-01-20T11:27:24.202Z,96895.97
2024-01-20T11:28:27.427Z,96894.81
2024-01-20T11:29:30.336Z,96885.59
2024-01-20T11:30:35.826Z,96889.88
2024-01-20T11:31:38.839Z,96882.91
2024-01-20T11:32:41.058Z,96883.38
2024-01-20T11:33:43.201Z,96879.91
2024-01-20T11:34:49.737Z,96884.97
2024-01-20T11:35:53.580Z,96888.44
2024-01-20T11:37:00.314Z,96886.53
2024-01-20T11:38:04.111Z,96883.03
2024-01-20T11:39:07.628Z,96892.69
2024-01-20T11:40:11.169Z,96891.59
2024-01-20T11:41:18.161Z,96889.69
2024-01-20T11:42:21.247Z,96891.25
2024-01-20T11:43:24.483Z,96898.22
2024-01-20T11:44:26.417Z,96894.06
2024-01-20T11:45:58.607Z,96896.44
2024-01-20T11:47:01.048Z,96895.31
2024-01-20T11:48:05.802Z,96900.69
2024-01-20T11:49:07.894Z,96892.63
2024-01-20T11:50:11.985Z,96891.50
2024-01-20T11:51:17.017Z,96898.47
2024-01-20T11:52:22.792Z,96893.53
2024-01-20T11:53:24.733Z,96896.22
2024-01-20T11:54:27.879Z,96896.22
2024-01-20T11:55:29.880Z,96896.22
2024-01-20T11:56:32.797Z,96895.13
2024-01-20T11:57:35.047Z,96893.22
2024-01-20T11:58:38.126Z,96899.06
2024-01-20T11:59:40.119Z,96902.53
2024-01-20T12:00:44.480Z,96890.63
2024-01-20T12:01:49.693Z,96884.91
2024-01-20T12:02:53.833Z,96892.66
2024-01-20T12:03:55.832Z,96893.44
2024-01-20T12:05:04.438Z,96885.03
2024-01-20T12:06:13.043Z,96893.13
2024-01-20T12:07:19.389Z,96890.41
2024-01-20T12:08:21.917Z,96883.13
2024-01-20T12:09:24.799Z,96883.91
2024-01-20T12:10:26.721Z,96885.47
2024-01-20T12:11:29.676Z,96880.41
2024-01-20T12:12:31.619Z,96881.19
2024-01-20T12:13:36.853Z,96883.56
2024-01-20T12:14:41.378Z,96887.03
2024-01-20T12:15:44.605Z,96891.31
2024-01-20T12:16:48.390Z,96891.31
2024-01-20T12:17:51.469Z,96885.91
2024-01-20T12:18:53.554Z,96897.84
2024-01-20T12:19:56.705Z,96887.81
2024-01-20T12:20:59.497Z,96884.91
2024-01-20T12:22:01.651Z,96885.34